Time,TemperatureF,DewpointF,PressureIn,WindDirection,WindDirectionDegrees,WindSpeedMPH,WindSpeedGustMPH,Humidity,HourlyPrecipIn,Conditions,Clouds,dailyrainin,SoftwareType,DateUTC
2013-09-12 00:05:00,83.2,75.2,30.05,SE,139,0.0,3.0,77,0.00,,,0.00,Wunderground v.1.15,2013-09-12 04:05:00,
2013-09-12 00:10:00,83.1,75.1,30.05,SE,139,0.0,3.0,77,0.00,,,0.00,Wunderground v.1.15,2013-09-12 04:10:00,
2013-09-12 00:15:00,83.1,75.5,30.05,SE,139,0.0,3.0,78,0.00,,,0.00,Wunderground v.1.15,2013-09-12 04:15:00,
2013-09-12 00:20:00,82.9,74.9,30.04,SE,139,0.0,3.0,77,0.00,,,0.00,Wunderground v.1.15,2013-09-12 04:20:00,
2013-09-12 00:25:00,82.8,75.2,30.04,SE,139,0.0,3.0,78,0.00,,,0.00,Wunderground v.1.15,2013-09-12 04:25:00,
2013-09-12 00:30:00,82.9,75.7,30.04,East,92,0.0,3.0,79,0.00,,,0.00,Wunderground v.1.15,2013-09-12 04:30:00,
2013-09-12 00:35:00,83.1,75.1,30.04,East,92,0.0,3.0,77,0.00,,,0.00,Wunderground v.1.15,2013-09-12 04:35:00,
2013-09-12 00:45:00,83.2,75.6,30.04,East,92,0.0,3.0,78,0.00,,,0.00,Wunderground v.1.15,2013-09-12 04:45:00,
2013-09-12 00:50:00,82.8,75.2,30.04,East,93,0.0,3.0,78,0.00,,,0.00,Wunderground v.1.15,2013-09-12 04:50:00,
2013-09-12 00:55:00,82.7,75.1,30.04,East,93,0.0,3.0,78,0.00,,,0.00,Wunderground v.1.15,2013-09-12 04:55:00,
2013-09-12 01:05:00,82.9,75.7,30.03,East,92,0.0,3.0,79,0.00,,,0.00,Wunderground v.1.15,2013-09-12 05:05:00,
2013-09-12 01:10:00,82.8,76.0,30.03,East,92,0.0,3.0,80,0.00,,,0.00,Wunderground v.1.15,2013-09-12 05:10:00,
2013-09-12 01:15:00,82.9,76.1,30.03,ENE,78,0.0,3.0,80,0.00,,,0.00,Wunderground v.1.15,2013-09-12 05:15:00,
2013-09-12 01:25:00,82.8,76.0,30.02,East,79,0.0,0.0,80,0.00,,,0.00,Wunderground v.1.15,2013-09-12 05:25:00,
2013-09-12 01:35:00,82.6,75.8,30.03,East,79,0.0,0.0,80,0.00,,,0.00,Wunderground v.1.15,2013-09-12 05:35:00,
2013-09-12 01:40:00,82.5,75.7,30.03,East,79,0.0,0.0,80,0.00,,,0.00,Wunderground v.1.15,2013-09-12 05:40:00,
2013-09-12 01:50:00,82.8,76.0,30.02,East,79,0.0,0.0,80,0.00,,,0.00,Wunderground v.1.15,2013-09-12 05:50:00,
2013-09-12 02:00:00,83.2,76.4,30.02,ENE,78,0.0,0.0,80,0.00,,,0.00,Wunderground v.1.15,2013-09-12 06:00:00,
2013-09-12 02:05:00,83.2,76.8,30.02,ENE,75,0.0,0.0,81,0.00,,,0.00,Wunderground v.1.15,2013-09-12 06:05:00,
2013-09-12 02:15:00,83.5,75.9,30.02,NE,55,2.0,7.0,78,0.00,,,0.00,Wunderground v.1.15,2013-09-12 06:15:00,
2013-09-12 02:20:00,83.7,76.1,30.02,NNE,32,6.0,6.0,78,0.00,,,0.00,Wunderground v.1.15,2013-09-12 06:20:00,
2013-09-12 02:30:00,83.6,77.5,30.02,NNE,18,5.0,8.0,82,0.00,,,0.00,Wunderground v.1.15,2013-09-12 06:30:00,
2013-09-12 02:35:00,83.0,77.3,30.02,NNE,16,3.0,9.0,83,0.00,,,0.00,Wunderground v.1.15,2013-09-12 06:35:00,
2013-09-12 02:40:00,82.9,77.2,30.02,NNE,13,4.0,4.0,83,0.00,,,0.00,Wunderground v.1.15,2013-09-12 06:40:00,
2013-09-12 02:50:00,82.9,77.6,30.02,NE,37,5.0,8.0,84,0.00,,,0.00,Wunderground v.1.15,2013-09-12 06:50:00,
2013-09-12 02:55:00,83.0,77.3,30.02,NE,36,5.0,8.0,83,0.00,,,0.00,Wunderground v.1.15,2013-09-12 06:55:00,
2013-09-12 03:05:00,83.4,76.2,30.01,NE,52,6.0,11.0,79,0.00,,,0.00,Wunderground v.1.15,2013-09-12 07:05:00,
2013-09-12 03:10:00,83.6,75.6,30.01,ENE,62,10.0,11.0,77,0.00,,,0.00,Wunderground v.1.15,2013-09-12 07:10:00,
2013-09-12 03:20:00,83.7,75.7,30.01,NE,45,10.0,12.0,77,0.00,,,0.00,Wunderground v.1.15,2013-09-12 07:20:00,
2013-09-12 03:25:00,83.7,76.1,30.01,NE,36,11.0,12.0,78,0.00,,,0.00,Wunderground v.1.15,2013-09-12 07:25:00,
2013-09-12 03:35:00,83.6,75.2,30.01,NE,39,12.0,12.0,76,0.00,,,0.00,Wunderground v.1.15,2013-09-12 07:35:00,
2013-09-12 03:40:00,83.6,75.2,30.00,NE,51,12.0,12.0,76,0.00,,,0.00,Wunderground v.1.15,2013-09-12 07:40:00,
2013-09-12 03:50:00,83.6,75.6,30.01,NE,40,11.0,11.0,77,0.00,,,0.00,Wunderground v.1.15,2013-09-12 07:50:00,
2013-09-12 03:55:00,83.6,74.8,30.00,NE,42,11.0,11.0,75,0.00,,,0.00,Wunderground v.1.15,2013-09-12 07:55:00,
2013-09-12 04:05:00,83.7,74.9,30.00,NE,48,11.0,12.0,75,0.00,,,0.00,Wunderground v.1.15,2013-09-12 08:05:00,
2013-09-12 04:10:00,83.6,74.4,30.00,NE,54,12.0,12.0,74,0.00,,,0.00,Wunderground v.1.15,2013-09-12 08:10:00,
2013-09-12 04:20:00,83.5,75.1,30.00,NE,43,12.0,12.0,76,0.00,,,0.00,Wunderground v.1.15,2013-09-12 08:20:00,
2013-09-12 04:25:00,83.5,74.7,30.00,NE,41,12.0,12.0,75,0.00,,,0.00,Wunderground v.1.15,2013-09-12 08:25:00,
2013-09-12 04:30:00,83.5,74.7,30.00,NE,53,12.0,12.0,75,0.00,,,0.00,Wunderground v.1.15,2013-09-12 08:30:00,
2013-09-12 04:35:00,83.6,74.8,30.00,NE,49,12.0,12.0,75,0.00,,,0.00,Wunderground v.1.15,2013-09-12 08:35:00,
2013-09-12 04:40:00,83.5,75.1,30.00,NE,37,11.0,11.0,76,0.00,,,0.00,Wunderground v.1.15,2013-09-12 08:40:00,
2013-09-12 04:45:00,83.5,75.1,30.00,NE,44,12.0,12.0,76,0.00,,,0.00,Wunderground v.1.15,2013-09-12 08:45:00,
2013-09-12 04:50:00,83.4,74.6,30.00,NE,44,12.0,12.0,75,0.00,,,0.00,Wunderground v.1.15,2013-09-12 08:50:00,
2013-09-12 05:00:00,83.3,74.5,30.00,NE,44,12.0,12.0,75,0.00,,,0.00,Wunderground v.1.15,2013-09-12 09:00:00,
2013-09-12 05:05:00,83.3,74.9,30.00,NE,49,12.0,12.0,76,0.00,,,0.00,Wunderground v.1.15,2013-09-12 09:05:00,
2013-09-12 05:10:00,83.3,74.5,30.00,NE,45,12.0,12.0,75,0.00,,,0.00,Wunderground v.1.15,2013-09-12 09:10:00,
2013-09-12 05:20:00,83.2,74.8,30.00,NE,51,12.0,15.0,76,0.00,,,0.00,Wunderground v.1.15,2013-09-12 09:20:00,
2013-09-12 05:25:00,83.3,75.3,30.00,NE,44,12.0,15.0,77,0.00,,,0.00,Wunderground v.1.15,2013-09-12 09:25:00,
2013-09-12 05:35:00,83.0,75.4,30.01,NE,41,13.0,14.0,78,0.00,,,0.00,Wunderground v.1.15,2013-09-12 09:35:00,
2013-09-12 05:40:00,82.7,75.1,30.01,NE,37,14.0,16.0,78,0.00,,,0.00,Wunderground v.1.15,2013-09-12 09:40:00,
2013-09-12 05:50:00,82.2,74.7,30.01,NE,46,14.0,15.0,78,0.00,,,0.00,Wunderground v.1.15,2013-09-12 09:50:00,
2013-09-12 05:55:00,82.2,75.4,30.01,NE,38,14.0,15.0,80,0.00,,,0.00,Wunderground v.1.15,2013-09-12 09:55:00,
2013-09-12 06:05:00,81.9,75.5,30.01,ENE,60,14.0,14.0,81,0.00,,,0.00,Wunderground v.1.15,2013-09-12 10:05:00,
2013-09-12 06:10:00,81.7,75.7,30.01,NE,45,13.0,13.0,82,0.00,,,0.00,Wunderground v.1.15,2013-09-12 10:10:00,
2013-09-12 06:20:00,81.5,75.5,30.01,NE,50,14.0,15.0,82,0.00,,,0.00,Wunderground v.1.15,2013-09-12 10:20:00,
2013-09-12 06:25:00,81.4,75.0,30.01,NE,55,15.0,15.0,81,0.00,,,0.00,Wunderground v.1.15,2013-09-12 10:25:00,
2013-09-12 06:35:00,81.2,75.5,30.01,NE,50,14.0,14.0,83,0.00,,,0.00,Wunderground v.1.15,2013-09-12 10:35:00,
2013-09-12 06:40:00,81.0,75.3,30.01,NE,46,14.0,16.0,83,0.00,,,0.00,Wunderground v.1.15,2013-09-12 10:40:00,
2013-09-12 06:45:00,81.0,75.0,30.01,NE,51,15.0,16.0,82,0.00,,,0.00,Wunderground v.1.15,2013-09-12 10:45:00,
2013-09-12 06:55:00,80.7,75.1,30.01,ENE,63,14.0,15.0,83,0.00,,,0.00,Wunderground v.1.15,2013-09-12 10:55:00,
2013-09-12 07:00:00,80.6,75.3,30.01,ENE,64,14.0,14.0,84,0.00,,,0.00,Wunderground v.1.15,2013-09-12 11:00:00,
2013-09-12 07:05:00,80.6,75.7,30.01,NE,52,14.0,14.0,85,0.00,,,0.00,Wunderground v.1.15,2013-09-12 11:05:00,
2013-09-12 07:10:00,80.3,75.4,30.01,ENE,57,14.0,14.0,85,0.00,,,0.00,Wunderground v.1.15,2013-09-12 11:10:00,
2013-09-12 07:20:00,80.2,75.6,30.02,ENE,61,15.0,15.0,86,0.00,,,0.00,Wunderground v.1.15,2013-09-12 11:20:00,
2013-09-12 07:25:00,80.3,76.1,30.01,NE,49,14.0,15.0,87,0.00,,,0.00,Wunderground v.1.15,2013-09-12 11:25:00,
2013-09-12 07:35:00,79.9,75.7,30.01,NE,49,14.0,15.0,87,0.00,,,0.00,Wunderground v.1.15,2013-09-12 11:35:00,
2013-09-12 07:40:00,79.8,75.9,30.01,NE,49,14.0,14.0,88,0.00,,,0.00,Wunderground v.1.15,2013-09-12 11:40:00,
2013-09-12 07:50:00,79.7,76.2,30.01,NE,35,13.0,13.0,89,0.00,,,0.00,Wunderground v.1.15,2013-09-12 11:50:00,
2013-09-12 07:55:00,79.6,76.1,30.01,NE,44,14.0,14.0,89,0.00,,,0.00,Wunderground v.1.15,2013-09-12 11:55:00,
2013-09-12 08:05:00,79.7,76.5,30.02,NE,51,14.0,16.0,90,0.00,,,0.00,Wunderground v.1.15,2013-09-12 12:05:00,
2013-09-12 08:10:00,79.8,76.6,30.02,NE,49,14.0,16.0,90,0.00,,,0.00,Wunderground v.1.15,2013-09-12 12:10:00,
2013-09-12 08:20:00,79.7,76.5,30.02,ENE,66,14.0,14.0,90,0.00,,,0.00,Wunderground v.1.15,2013-09-12 12:20:00,
2013-09-12 08:25:00,79.8,76.6,30.02,NE,55,13.0,14.0,90,0.00,,,0.00,Wunderground v.1.15,2013-09-12 12:25:00,
2013-09-12 08:35:00,79.7,76.5,30.02,ENE,61,12.0,13.0,90,0.00,,,0.00,Wunderground v.1.15,2013-09-12 12:35:00,
2013-09-12 08:40:00,79.8,76.6,30.02,NE,34,12.0,14.0,90,0.00,,,0.00,Wunderground v.1.15,2013-09-12 12:40:00,
2013-09-12 08:50:00,80.0,77.1,30.02,NE,53,14.0,14.0,91,0.00,,,0.00,Wunderground v.1.15,2013-09-12 12:50:00,
2013-09-12 08:55:00,80.0,77.1,30.02,NE,49,14.0,14.0,91,0.00,,,0.00,Wunderground v.1.15,2013-09-12 12:55:00,
2013-09-12 09:05:00,80.0,77.1,30.02,NE,47,14.0,14.0,91,0.00,,,0.00,Wunderground v.1.15,2013-09-12 13:05:00,
2013-09-12 09:10:00,80.0,77.1,30.02,NE,55,14.0,15.0,91,0.00,,,0.00,Wunderground v.1.15,2013-09-12 13:10:00,
2013-09-12 09:15:00,80.2,77.3,30.02,NE,46,14.0,15.0,91,0.00,,,0.00,Wunderground v.1.15,2013-09-12 13:15:00,
2013-09-12 09:25:00,80.1,77.2,30.03,NE,52,13.0,14.0,91,0.00,,,0.00,Wunderground v.1.15,2013-09-12 13:25:00,
2013-09-12 09:30:00,80.3,77.4,30.03,NE,49,13.0,14.0,91,0.00,,,0.00,Wunderground v.1.15,2013-09-12 13:30:00,
2013-09-12 09:35:00,80.2,77.3,30.03,ENE,58,13.0,14.0,91,0.00,,,0.00,Wunderground v.1.15,2013-09-12 13:35:00,
2013-09-12 09:40:00,80.4,77.5,30.03,NE,50,13.0,13.0,91,0.00,,,0.00,Wunderground v.1.15,2013-09-12 13:40:00,
2013-09-12 09:50:00,80.7,77.5,30.03,ENE,61,13.0,14.0,90,0.00,,,0.00,Wunderground v.1.15,2013-09-12 13:50:00,
2013-09-12 09:55:00,80.7,77.5,30.03,ENE,64,13.0,14.0,90,0.00,,,0.00,Wunderground v.1.15,2013-09-12 13:55:00,
2013-09-12 10:05:00,80.7,77.5,30.03,ENE,69,14.0,14.0,90,0.00,,,0.00,Wunderground v.1.15,2013-09-12 14:05:00,
2013-09-12 10:10:00,80.7,77.5,30.03,ENE,74,14.0,14.0,90,0.00,,,0.00,Wunderground v.1.15,2013-09-12 14:10:00,
2013-09-12 10:20:00,80.8,77.6,30.03,ENE,59,13.0,13.0,90,0.00,,,0.00,Wunderground v.1.15,2013-09-12 14:20:00,
2013-09-12 10:25:00,80.9,77.4,30.03,ENE,59,13.0,13.0,89,0.00,,,0.00,Wunderground v.1.15,2013-09-12 14:25:00,
2013-09-12 10:35:00,81.0,77.8,30.03,ENE,66,13.0,13.0,90,0.00,,,0.00,Wunderground v.1.15,2013-09-12 14:35:00,
2013-09-12 10:40:00,81.1,77.9,30.03,ENE,67,13.0,13.0,90,0.00,,,0.00,Wunderground v.1.15,2013-09-12 14:40:00,
2013-09-12 10:50:00,81.2,77.6,30.03,ENE,70,13.0,14.0,89,0.00,,,0.00,Wunderground v.1.15,2013-09-12 14:50:00,
2013-09-12 10:55:00,81.3,77.7,30.03,NE,54,13.0,14.0,89,0.00,,,0.00,Wunderground v.1.15,2013-09-12 14:55:00,
2013-09-12 11:05:00,81.4,77.8,30.03,ENE,61,13.0,13.0,89,0.00,,,0.00,Wunderground v.1.15,2013-09-12 15:05:00,
2013-09-12 11:10:00,81.4,77.5,30.03,ENE,63,13.0,13.0,88,0.00,,,0.00,Wunderground v.1.15,2013-09-12 15:10:00,
2013-09-12 11:20:00,81.6,78.0,30.03,ENE,70,12.0,12.0,89,0.00,,,0.00,Wunderground v.1.15,2013-09-12 15:20:00,
2013-09-12 11:25:00,81.5,77.6,30.03,NE,48,12.0,13.0,88,0.00,,,0.00,Wunderground v.1.15,2013-09-12 15:25:00,
2013-09-12 11:35:00,81.7,77.8,30.03,NE,55,12.0,14.0,88,0.00,,,0.00,Wunderground v.1.15,2013-09-12 15:35:00,
2013-09-12 11:40:00,81.8,77.9,30.03,NE,55,11.0,11.0,88,0.00,,,0.00,Wunderground v.1.15,2013-09-12 15:40:00,
2013-09-12 11:50:00,81.9,78.0,30.03,NE,49,10.0,11.0,88,0.00,,,0.00,Wunderground v.1.15,2013-09-12 15:50:00,
2013-09-12 11:55:00,82.1,78.2,30.03,NE,56,10.0,13.0,88,0.00,,,0.00,Wunderground v.1.15,2013-09-12 15:55:00,
2013-09-12 12:05:00,82.4,78.1,30.03,NE,50,10.0,11.0,87,0.00,,,0.00,Wunderground v.1.15,2013-09-12 16:05:00,
2013-09-12 12:10:00,82.5,78.2,30.03,ENE,62,10.0,10.0,87,0.00,,,0.00,Wunderground v.1.15,2013-09-12 16:10:00,
2013-09-12 12:15:00,82.6,78.0,30.03,NE,48,10.0,10.0,86,0.00,,,0.00,Wunderground v.1.15,2013-09-12 16:15:00,
2013-09-12 12:25:00,82.7,77.7,30.03,ENE,62,10.0,13.0,85,0.00,,,0.00,Wunderground v.1.15,2013-09-12 16:25:00,
2013-09-12 12:30:00,82.8,77.8,30.03,ENE,60,12.0,12.0,85,0.00,,,0.00,Wunderground v.1.15,2013-09-12 16:30:00,
2013-09-12 12:40:00,83.3,78.0,30.03,NE,49,12.0,12.0,84,0.00,,,0.00,Wunderground v.1.15,2013-09-12 16:40:00,
2013-09-12 12:45:00,83.2,77.1,30.02,NE,53,12.0,12.0,82,0.00,,,0.00,Wunderground v.1.15,2013-09-12 16:45:00,
2013-09-12 12:50:00,83.4,77.3,30.02,NE,55,12.0,14.0,82,0.00,,,0.00,Wunderground v.1.15,2013-09-12 16:50:00,
2013-09-12 12:55:00,83.5,77.4,30.02,ENE,58,11.0,14.0,82,0.00,,,0.00,Wunderground v.1.15,2013-09-12 16:55:00,
2013-09-12 13:05:00,83.5,77.4,30.02,NE,36,11.0,11.0,82,0.00,,,0.00,Wunderground v.1.15,2013-09-12 17:05:00,
2013-09-12 13:10:00,83.4,77.3,30.01,NE,51,11.0,13.0,82,0.00,,,0.00,Wunderground v.1.15,2013-09-12 17:10:00,
2013-09-12 13:20:00,83.6,77.1,30.01,NE,41,10.0,10.0,81,0.00,,,0.00,Wunderground v.1.15,2013-09-12 17:20:00,
2013-09-12 13:25:00,83.5,77.1,30.01,NE,51,8.0,10.0,81,0.00,,,0.00,Wunderground v.1.15,2013-09-12 17:25:00,
2013-09-12 13:35:00,83.6,76.4,30.01,ENE,69,8.0,8.0,79,0.00,,,0.00,Wunderground v.1.15,2013-09-12 17:35:00,
2013-09-12 13:40:00,83.9,76.7,30.01,NNE,25,6.0,6.0,79,0.00,,,0.00,Wunderground v.1.15,2013-09-12 17:40:00,
2013-09-12 13:50:00,83.9,77.1,30.01,East,89,6.0,6.0,80,0.00,,,0.00,Wunderground v.1.15,2013-09-12 17:50:00,
2013-09-12 13:55:00,84.4,75.2,30.01,SE,135,8.0,9.0,74,0.00,,,0.00,Wunderground v.1.15,2013-09-12 17:55:00,
2013-09-12 14:05:00,85.0,75.0,30.00,SE,136,12.0,17.0,72,0.00,,,0.00,Wunderground v.1.15,2013-09-12 18:05:00,
2013-09-12 14:10:00,84.9,75.7,30.00,SE,132,14.0,15.0,74,0.00,,,0.00,Wunderground v.1.15,2013-09-12 18:10:00,
2013-09-12 14:20:00,85.2,74.3,30.00,ESE,122,14.0,14.0,70,0.00,,,0.00,Wunderground v.1.15,2013-09-12 18:20:00,
2013-09-12 14:25:00,85.0,74.1,30.00,ESE,123,14.0,14.0,70,0.00,,,0.00,Wunderground v.1.15,2013-09-12 18:25:00,
2013-09-12 14:35:00,84.8,75.2,30.00,ESE,119,14.0,14.0,73,0.00,,,0.00,Wunderground v.1.15,2013-09-12 18:35:00,
2013-09-12 14:40:00,84.9,75.3,30.00,ESE,123,13.0,14.0,73,0.00,,,0.00,Wunderground v.1.15,2013-09-12 18:40:00,
2013-09-12 14:50:00,84.7,75.5,29.99,SE,133,13.0,14.0,74,0.00,,,0.00,Wunderground v.1.15,2013-09-12 18:50:00,
2013-09-12 14:55:00,84.7,75.9,29.99,ESE,121,12.0,14.0,75,0.00,,,0.00,Wunderground v.1.15,2013-09-12 18:55:00,
2013-09-12 15:05:00,84.8,76.0,29.98,ESE,107,13.0,13.0,75,0.00,,,0.00,Wunderground v.1.15,2013-09-12 19:05:00,
2013-09-12 15:10:00,84.6,75.4,29.98,ESE,123,13.0,16.0,74,0.00,,,0.00,Wunderground v.1.15,2013-09-12 19:10:00,
2013-09-12 15:20:00,84.7,75.1,29.97,SE,128,13.0,13.0,73,0.00,,,0.00,Wunderground v.1.15,2013-09-12 19:20:00,
2013-09-12 15:25:00,84.6,75.0,29.97,ESE,123,13.0,13.0,73,0.00,,,0.00,Wunderground v.1.15,2013-09-12 19:25:00,
2013-09-12 15:35:00,84.6,75.0,29.97,ESE,123,12.0,13.0,73,0.00,,,0.00,Wunderground v.1.15,2013-09-12 19:35:00,
2013-09-12 15:40:00,84.7,75.5,29.96,ESE,119,12.0,14.0,74,0.00,,,0.00,Wunderground v.1.15,2013-09-12 19:40:00,
2013-09-12 15:45:00,84.7,75.5,29.96,SE,126,12.0,14.0,74,0.00,,,0.00,Wunderground v.1.15,2013-09-12 19:45:00,
2013-09-12 15:55:00,84.7,75.9,29.95,SE,124,13.0,16.0,75,0.00,,,0.00,Wunderground v.1.15,2013-09-12 19:55:00,
2013-09-12 16:00:00,84.7,75.5,29.95,ESE,122,12.0,15.0,74,0.00,,,0.00,Wunderground v.1.15,2013-09-12 20:00:00,
2013-09-12 16:05:00,84.9,75.7,29.95,SE,134,11.0,15.0,74,0.00,,,0.00,Wunderground v.1.15,2013-09-12 20:05:00,
2013-09-12 16:15:00,84.8,76.0,29.95,ESE,111,11.0,15.0,75,0.00,,,0.00,Wunderground v.1.15,2013-09-12 20:15:00,
2013-09-12 16:20:00,84.5,75.3,29.94,SSE,161,12.0,12.0,74,0.00,,,0.00,Wunderground v.1.15,2013-09-12 20:20:00,
2013-09-12 16:25:00,84.7,75.9,29.94,SE,132,12.0,15.0,75,0.00,,,0.00,Wunderground v.1.15,2013-09-12 20:25:00,
2013-09-12 16:35:00,84.8,76.0,29.94,ESE,118,11.0,12.0,75,0.00,,,0.00,Wunderground v.1.15,2013-09-12 20:35:00,
2013-09-12 16:40:00,85.0,75.8,29.94,SSE,165,10.0,10.0,74,0.00,,,0.00,Wunderground v.1.15,2013-09-12 20:40:00,
2013-09-12 16:50:00,84.7,75.9,29.93,ESE,121,10.0,14.0,75,0.00,,,0.00,Wunderground v.1.15,2013-09-12 20:50:00,
2013-09-12 16:55:00,84.7,75.1,29.93,ESE,113,9.0,14.0,73,0.00,,,0.00,Wunderground v.1.15,2013-09-12 20:55:00,
2013-09-12 17:05:00,84.9,75.7,29.93,South,184,9.0,10.0,74,0.00,,,0.00,Wunderground v.1.15,2013-09-12 21:05:00,
2013-09-12 17:10:00,85.4,75.3,29.93,SE,145,9.0,9.0,72,0.00,,,0.00,Wunderground v.1.15,2013-09-12 21:10:00,
2013-09-12 17:20:00,85.3,75.2,29.93,SE,137,8.0,8.0,72,0.00,,,0.00,Wunderground v.1.15,2013-09-12 21:20:00,
2013-09-12 17:25:00,85.5,74.6,29.93,SSE,148,9.0,10.0,70,0.00,,,0.00,Wunderground v.1.15,2013-09-12 21:25:00,
2013-09-12 17:35:00,85.2,75.6,29.93,SE,129,8.0,9.0,73,0.00,,,0.00,Wunderground v.1.15,2013-09-12 21:35:00,
2013-09-12 17:40:00,85.1,75.5,29.93,SE,140,8.0,8.0,73,0.00,,,0.00,Wunderground v.1.15,2013-09-12 21:40:00,
2013-09-12 17:50:00,85.3,75.2,29.93,SE,125,8.0,8.0,72,0.00,,,0.00,Wunderground v.1.15,2013-09-12 21:50:00,
2013-09-12 17:55:00,85.0,75.4,29.93,SE,130,8.0,12.0,73,0.00,,,0.00,Wunderground v.1.15,2013-09-12 21:55:00,
2013-09-12 18:05:00,85.0,75.4,29.93,SSE,163,9.0,12.0,73,0.00,,,0.00,Wunderground v.1.15,2013-09-12 22:05:00,
2013-09-12 18:10:00,85.1,75.1,29.93,SSE,167,9.0,9.0,72,0.00,,,0.00,Wunderground v.1.15,2013-09-12 22:10:00,
2013-09-12 18:20:00,85.3,75.2,29.92,SSE,163,9.0,9.0,72,0.00,,,0.00,Wunderground v.1.15,2013-09-12 22:20:00,
2013-09-12 18:25:00,85.2,74.7,29.92,SSE,161,8.0,9.0,71,0.00,,,0.00,Wunderground v.1.15,2013-09-12 22:25:00,
2013-09-12 18:35:00,85.1,75.1,29.92,SSE,165,9.0,12.0,72,0.00,,,0.00,Wunderground v.1.15,2013-09-12 22:35:00,
2013-09-12 18:40:00,84.9,74.4,29.92,SSE,162,9.0,10.0,71,0.00,,,0.00,Wunderground v.1.15,2013-09-12 22:40:00,
2013-09-12 18:45:00,84.7,74.7,29.92,SSE,164,9.0,10.0,72,0.00,,,0.00,Wunderground v.1.15,2013-09-12 22:45:00,
2013-09-12 18:55:00,84.6,75.0,29.92,SSE,161,8.0,9.0,73,0.00,,,0.00,Wunderground v.1.15,2013-09-12 22:55:00,
2013-09-12 19:00:00,84.6,74.6,29.92,SSE,163,7.0,10.0,72,0.00,,,0.00,Wunderground v.1.15,2013-09-12 23:00:00,
2013-09-12 19:05:00,84.5,74.9,29.92,South,182,7.0,10.0,73,0.00,,,0.00,Wunderground v.1.15,2013-09-12 23:05:00,
2013-09-12 19:15:00,84.3,75.1,29.92,South,188,6.0,8.0,74,0.00,,,0.00,Wunderground v.1.15,2013-09-12 23:15:00,
2013-09-12 19:20:00,84.1,74.9,29.92,South,187,6.0,6.0,74,0.00,,,0.00,Wunderground v.1.15,2013-09-12 23:20:00,
2013-09-12 19:25:00,84.1,74.9,29.92,South,188,6.0,6.0,74,0.00,,,0.00,Wunderground v.1.15,2013-09-12 23:25:00,
2013-09-12 19:35:00,83.8,74.6,29.92,South,183,5.0,6.0,74,0.00,,,0.00,Wunderground v.1.15,2013-09-12 23:35:00,
2013-09-12 19:45:00,83.6,74.8,29.92,SSE,155,5.0,9.0,75,0.00,,,0.00,Wunderground v.1.15,2013-09-12 23:45:00,
2013-09-12 19:50:00,83.4,73.8,29.92,South,186,6.0,6.0,73,0.00,,,0.00,Wunderground v.1.15,2013-09-12 23:50:00,
2013-09-12 20:00:00,83.4,74.2,29.92,SSE,166,5.0,8.0,74,0.00,,,0.00,Wunderground v.1.15,2013-09-13 00:00:00,
2013-09-12 20:10:00,83.3,73.3,29.92,South,172,6.0,6.0,72,0.00,,,0.00,Wunderground v.1.15,2013-09-13 00:10:00,
2013-09-12 20:15:00,83.4,73.8,29.92,South,173,6.0,7.0,73,0.00,,,0.00,Wunderground v.1.15,2013-09-13 00:15:00,
2013-09-12 20:20:00,83.3,74.1,29.92,South,170,6.0,6.0,74,0.00,,,0.00,Wunderground v.1.15,2013-09-13 00:20:00,
2013-09-12 20:30:00,83.4,74.2,29.92,SSE,164,6.0,8.0,74,0.00,,,0.00,Wunderground v.1.15,2013-09-13 00:30:00,
2013-09-12 20:35:00,83.2,73.6,29.92,South,187,6.0,10.0,73,0.00,,,0.00,Wunderground v.1.15,2013-09-13 00:35:00,
2013-09-12 20:40:00,83.2,74.0,29.92,South,178,6.0,6.0,74,0.00,,,0.00,Wunderground v.1.15,2013-09-13 00:40:00,
2013-09-12 20:50:00,83.1,74.4,29.92,SSW,199,6.0,10.0,75,0.00,,,0.00,Wunderground v.1.15,2013-09-13 00:50:00,
2013-09-12 21:00:00,82.8,74.1,29.93,South,171,7.0,9.0,75,0.00,,,0.00,Wunderground v.1.15,2013-09-13 01:00:00,
2013-09-12 21:10:00,82.7,74.0,29.93,South,176,6.0,6.0,75,0.00,,,0.00,Wunderground v.1.15,2013-09-13 01:10:00,
2013-09-12 21:20:00,82.7,74.4,29.93,SSW,200,8.0,8.0,76,0.00,,,0.00,Wunderground v.1.15,2013-09-13 01:20:00,
2013-09-12 21:25:00,82.7,74.4,29.93,South,188,7.0,8.0,76,0.00,,,0.00,Wunderground v.1.15,2013-09-13 01:25:00,
2013-09-12 21:35:00,82.5,74.2,29.93,South,184,6.0,6.0,76,0.00,,,0.00,Wunderground v.1.15,2013-09-13 01:35:00,
2013-09-12 21:40:00,82.4,74.1,29.93,SSW,197,6.0,6.0,76,0.00,,,0.00,Wunderground v.1.15,2013-09-13 01:40:00,
2013-09-12 21:50:00,82.7,74.4,29.93,SSW,195,6.0,6.0,76,0.00,,,0.00,Wunderground v.1.15,2013-09-13 01:50:00,
2013-09-12 21:55:00,82.6,74.3,29.94,South,187,5.0,6.0,76,0.00,,,0.00,Wunderground v.1.15,2013-09-13 01:55:00,
2013-09-12 22:05:00,82.5,74.6,29.94,South,186,5.0,6.0,77,0.00,,,0.00,Wunderground v.1.15,2013-09-13 02:05:00,
2013-09-12 22:10:00,82.4,74.1,29.94,South,185,4.0,6.0,76,0.00,,,0.00,Wunderground v.1.15,2013-09-13 02:10:00,
2013-09-12 22:20:00,82.5,74.9,29.94,South,177,6.0,9.0,78,0.00,,,0.00,Wunderground v.1.15,2013-09-13 02:20:00,
2013-09-12 22:25:00,82.4,74.1,29.94,South,185,5.0,9.0,76,0.00,,,0.00,Wunderground v.1.15,2013-09-13 02:25:00,
2013-09-12 22:35:00,82.4,74.8,29.94,SSW,192,6.0,6.0,78,0.00,,,0.00,Wunderground v.1.15,2013-09-13 02:35:00,
2013-09-12 22:40:00,82.5,74.9,29.94,South,184,5.0,5.0,78,0.00,,,0.00,Wunderground v.1.15,2013-09-13 02:40:00,
2013-09-12 22:50:00,82.4,74.5,29.94,South,190,5.0,5.0,77,0.00,,,0.00,Wunderground v.1.15,2013-09-13 02:50:00,
2013-09-12 22:55:00,82.4,74.8,29.94,South,184,5.0,5.0,78,0.00,,,0.00,Wunderground v.1.15,2013-09-13 02:55:00,
2013-09-12 23:05:00,82.4,74.1,29.94,SSW,198,5.0,6.0,76,0.00,,,0.00,Wunderground v.1.15,2013-09-13 03:05:00,
2013-09-12 23:10:00,82.6,74.7,29.94,SSW,205,3.0,3.0,77,0.00,,,0.00,Wunderground v.1.15,2013-09-13 03:10:00,
2013-09-12 23:20:00,82.5,74.6,29.94,SSW,200,2.0,5.0,77,0.00,,,0.00,Wunderground v.1.15,2013-09-13 03:20:00,
2013-09-12 23:25:00,82.4,74.8,29.94,South,187,4.0,5.0,78,0.00,,,0.00,Wunderground v.1.15,2013-09-13 03:25:00,
2013-09-12 23:35:00,82.3,74.7,29.94,SSW,195,3.0,4.0,78,0.00,,,0.00,Wunderground v.1.15,2013-09-13 03:35:00,
2013-09-12 23:40:00,82.3,74.7,29.94,SSW,198,1.0,4.0,78,0.00,,,0.00,Wunderground v.1.15,2013-09-13 03:40:00,
2013-09-12 23:50:00,82.4,74.5,29.94,SSW,213,1.0,1.0,77,0.00,,,0.00,Wunderground v.1.15,2013-09-13 03:50:00,
2013-09-12 23:55:00,82.4,74.8,29.94,SW,215,0.0,1.0,78,0.00,,,0.00,Wunderground v.1.15,2013-09-13 03:55:00,